Time;durP1;ratioP1;P1;durP2;ratioP2;P2;SDS_P1;SDS_P2;PMS_P1;PMS_P2;Temp;Humidity;BMP_temperature;BMP_pressure;BME280_temperature;BME280_humidity;BME280_pressure;Samples;Min_cycle;Max_cycle;Signal;HPM_P1;HPM_P2
2022/01/09 00:01:27;;;;;;;4.23;3.83;;;;;;;1.52;100.00;98561.91;4971361;28;20829;-76
2022/01/09 00:03:55;;;;;;;3.50;3.23;;;;;;;3.06;100.00;98796.09;4966499;28;20449;-76
2022/01/09 00:06:21;;;;;;;3.93;3.60;;;;;;;3.27;100.00;98830.38;4971288;28;20197;-77
2022/01/09 00:08:47;;;;;;;3.83;3.53;;;;;;;3.17;100.00;98811.41;4973740;28;20507;-77
2022/01/09 00:11:18;;;;;;;3.10;2.90;;;;;;;3.34;100.00;98855.06;4963370;28;20185;-78
2022/01/09 00:13:45;;;;;;;3.33;3.07;;;;;;;1.27;100.00;98534.34;4954691;28;20548;-78
2022/01/09 00:16:10;;;;;;;4.03;3.73;;;;;;;3.29;100.00;98848.72;4964968;28;20470;-77
2022/01/09 00:18:36;;;;;;;3.37;3.17;;;;;;;2.98;100.00;98783.00;4974669;28;20449;-79
2022/01/09 00:21:05;;;;;;;4.20;3.90;;;;;;;3.02;100.00;98786.91;4969785;28;20189;-77
2022/01/09 00:23:32;;;;;;;3.30;3.10;;;;;;;3.07;100.00;98795.09;4971351;28;20618;-77
2022/01/09 00:25:59;;;;;;;3.37;3.17;;;;;;;2.17;100.00;98649.66;4967791;28;20463;-81
2022/01/09 00:28:24;;;;;;;3.37;3.13;;;;;;;3.39;100.00;98823.47;4970336;28;20441;-79
2022/01/09 00:30:50;;;;;;;3.90;3.60;;;;;;;1.89;100.00;98612.72;4972171;28;20440;-77
2022/01/09 00:33:15;;;;;;;3.70;3.40;;;;;;;1.60;100.00;98554.84;4968682;28;20240;-75
2022/01/09 00:35:40;;;;;;;3.47;3.17;;;;;;;3.34;100.00;98825.91;4969811;28;20588;-76
2022/01/09 00:38:09;;;;;;;3.30;3.03;;;;;;;3.04;100.00;98772.47;4953813;28;20782;-75
2022/01/09 00:40:34;;;;;;;4.10;3.80;;;;;;;3.10;100.00;98778.78;4952295;28;20198;-79
2022/01/09 00:43:00;;;;;;;3.13;2.93;;;;;;;3.40;100.00;98834.88;4969967;28;20463;-78
2022/01/09 00:45:25;;;;;;;2.63;2.53;;;;;;;3.05;100.00;98783.88;4968753;28;20248;-78
2022/01/09 00:47:51;;;;;;;3.63;3.43;;;;;;;2.76;100.00;98742.66;4971253;28;20682;-78
2022/01/09 00:50:16;;;;;;;3.10;2.90;;;;;;;3.32;100.00;98825.28;4967299;28;20710;-77
2022/01/09 00:52:42;;;;;;;3.57;3.27;;;;;;;2.98;100.00;98775.06;4967317;28;20189;-76
2022/01/09 00:55:08;;;;;;;2.50;2.30;;;;;;;3.49;100.00;98817.75;4953486;28;20201;-78
2022/01/09 00:57:35;;;;;;;3.33;3.13;;;;;;;3.26;100.00;98804.88;4970128;28;20508;-77
2022/01/09 01:00:01;;;;;;;3.20;3.00;;;;;;;1.67;100.00;98526.63;4969815;28;20567;-76
2022/01/09 01:02:26;;;;;;;3.10;2.90;;;;;;;3.50;100.00;98822.06;4947656;28;20450;-76
2022/01/09 01:04:52;;;;;;;2.47;2.37;;;;;;;2.83;100.00;98746.13;4971877;28;20229;-77
2022/01/09 01:07:19;;;;;;;3.30;3.10;;;;;;;3.38;100.00;98828.97;4953730;28;20980;-76
2022/01/09 01:09:45;;;;;;;3.57;3.30;;;;;;;2.65;100.00;98710.44;4970004;28;20211;-76
2022/01/09 01:12:11;;;;;;;3.33;3.13;;;;;;;3.42;100.00;98827.56;4972425;28;20946;-78
2022/01/09 01:14:40;;;;;;;3.60;3.40;;;;;;;2.88;100.00;98751.63;4961157;28;20192;-92
2022/01/09 01:17:09;;;;;;;3.40;3.20;;;;;;;3.14;100.00;98793.25;4971258;28;20209;-77
2022/01/09 01:19:34;;;;;;;3.10;2.90;;;;;;;2.90;100.00;98749.59;4970119;28;20479;-79
2022/01/09 01:22:01;;;;;;;3.93;3.63;;;;;;;2.94;100.00;98764.88;4971980;28;20438;-82
2022/01/09 01:24:27;;;;;;;3.63;3.33;;;;;;;3.20;100.00;98786.34;4958437;28;20190;-78
2022/01/09 01:26:52;;;;;;;3.80;3.50;;;;;;;1.92;100.00;98570.00;4967306;28;20810;-77
2022/01/09 01:29:18;;;;;;;3.23;3.03;;;;;;;2.91;100.00;98753.88;4969182;28;20236;-77
2022/01/09 01:31:43;;;;;;;3.73;3.40;;;;;;;3.35;100.00;98824.06;4969465;28;20189;-78
2022/01/09 01:34:12;;;;;;;3.50;3.30;;;;;;;3.21;100.00;98798.56;4960903;28;20233;-77
2022/01/09 01:36:37;;;;;;;4.40;4.10;;;;;;;1.80;100.00;98616.53;4970402;28;20903;-78
2022/01/09 01:39:03;;;;;;;3.43;3.17;;;;;;;3.46;100.00;98835.91;4968459;28;20441;-80
2022/01/09 01:41:28;;;;;;;3.20;3.00;;;;;;;3.01;100.00;98783.47;4967522;28;20198;-77
2022/01/09 01:43:54;;;;;;;3.03;2.83;;;;;;;2.96;100.00;98772.63;4971921;28;20698;-79
2022/01/09 01:46:19;;;;;;;3.27;2.97;;;;;;;3.44;100.00;98843.25;4967215;28;20213;-79
2022/01/09 01:48:45;;;;;;;3.00;2.80;;;;;;;3.14;100.00;98809.16;4969610;28;20189;-78
2022/01/09 01:51:10;;;;;;;2.97;2.77;;;;;;;2.96;100.00;98770.00;4967555;28;20697;-77
2022/01/09 01:53:38;;;;;;;3.17;2.97;;;;;;;2.91;100.00;98767.13;4971712;28;20209;-79
2022/01/09 01:56:05;;;;;;;3.27;2.63;;;;;;;3.20;100.00;98821.59;4971882;28;20783;-76
2022/01/09 01:58:34;;;;;;;3.10;2.90;;;;;;;2.98;100.00;98790.97;4973843;28;20441;-78
2022/01/09 02:01:01;;;;;;;3.40;3.20;;;;;;;3.30;100.00;98843.22;4973373;28;20521;-77
2022/01/09 02:03:27;;;;;;;2.67;2.57;;;;;;;3.05;100.00;98799.75;4976556;28;20441;-76
2022/01/09 02:05:53;;;;;;;2.63;2.50;;;;;;;2.05;100.00;98659.13;4977460;28;20463;-76
2022/01/09 02:08:18;;;;;;;3.47;3.03;;;;;;;3.39;100.00;98852.63;4974883;28;20193;-77
2022/01/09 02:10:48;;;;;;;3.20;2.90;;;;;;;1.85;100.00;98615.94;4979194;28;20440;-77
2022/01/09 02:13:13;;;;;;;2.87;2.73;;;;;;;2.65;100.00;98726.31;4956825;28;20681;-76
2022/01/09 02:15:46;;;;;;;3.23;3.03;;;;;;;2.89;100.00;98772.63;4968814;28;20536;-84
2022/01/09 02:18:14;;;;;;;3.13;2.80;;;;;;;3.29;100.00;98849.53;4970218;28;20230;-78
2022/01/09 02:20:41;;;;;;;3.37;2.90;;;;;;;1.50;100.00;98552.56;4973877;28;20518;-78
2022/01/09 02:23:08;;;;;;;3.20;2.90;;;;;;;2.94;100.00;98772.00;4973595;28;20484;-78
2022/01/09 02:25:36;;;;;;;2.83;2.73;;;;;;;3.34;100.00;98860.34;4971245;28;20988;-79
2022/01/09 02:28:02;;;;;;;3.13;2.87;;;;;;;3.16;100.00;98807.94;4971078;28;20425;-77
2022/01/09 02:30:29;;;;;;;3.50;3.20;;;;;;;3.34;100.00;98849.75;4971810;28;20440;-78
2022/01/09 02:32:54;;;;;;;3.20;3.00;;;;;;;3.35;100.00;98855.84;4972553;28;20473;-75
2022/01/09 02:35:23;;;;;;;2.77;2.67;;;;;;;1.98;100.00;98645.09;4973566;28;20489;-76
2022/01/09 02:37:49;;;;;;;2.43;2.33;;;;;;;3.05;100.00;98767.97;4972458;28;20240;-76
2022/01/09 02:40:14;;;;;;;3.60;3.30;;;;;;;3.45;100.00;98851.00;4971316;28;20472;-77
2022/01/09 02:42:40;;;;;;;2.80;2.23;;;;;;;2.79;100.00;98772.19;4972360;28;20209;-81
2022/01/09 02:45:06;;;;;;;2.60;2.50;;;;;;;3.42;100.00;98855.91;4976038;28;20213;-78
2022/01/09 02:47:33;;;;;;;3.23;2.87;;;;;;;2.00;100.00;98657.09;4973457;28;20188;-77
2022/01/09 02:50:17;;;;;;;5.43;2.77;;;;;;;3.15;100.00;98824.00;4971334;28;20198;-77
2022/01/09 02:52:52;;;;;;;2.93;2.73;;;;;;;1.98;100.00;98660.94;4975119;28;20483;-77
2022/01/09 02:55:20;;;;;;;2.63;2.53;;;;;;;3.55;100.00;98863.84;4975743;28;20448;-77
2022/01/09 02:57:47;;;;;;;2.83;2.63;;;;;;;1.70;100.00;98601.03;4975898;28;20470;-76
2022/01/09 03:00:16;;;;;;;2.23;2.13;;;;;;;3.49;100.00;98886.69;4975833;28;20437;-77
2022/01/09 03:02:42;;;;;;;2.57;2.37;;;;;;;2.49;100.00;98724.84;4970569;28;20437;-77
2022/01/09 03:05:08;;;;;;;4.63;2.77;;;;;;;2.83;100.00;98738.16;4973011;28;20453;-75
2022/01/09 03:07:34;;;;;;;2.20;2.10;;;;;;;3.49;100.00;98851.41;4972642;28;20232;-76
2022/01/09 03:10:00;;;;;;;3.00;2.90;;;;;;;3.47;100.00;98840.19;4972307;28;20823;-76
2022/01/09 03:12:25;;;;;;;2.93;2.73;;;;;;;3.18;100.00;98823.59;4973222;28;20272;-75
2022/01/09 03:14:51;;;;;;;2.73;2.53;;;;;;;3.27;100.00;98829.53;4972535;28;20333;-76
2022/01/09 03:17:16;;;;;;;3.23;2.90;;;;;;;3.17;100.00;98829.94;4973295;28;20633;-77
2022/01/09 03:19:41;;;;;;;3.00;2.80;;;;;;;3.42;100.00;98871.81;4970886;28;20196;-77
2022/01/09 03:22:07;;;;;;;3.57;3.27;;;;;;;3.44;100.00;98881.16;4974146;28;20218;-77
2022/01/09 03:24:33;;;;;;;2.93;2.73;;;;;;;3.33;100.00;98848.13;4969982;28;20635;-78
2022/01/09 03:26:58;;;;;;;3.07;2.60;;;;;;;3.34;100.00;98844.44;4967648;28;20178;-75
2022/01/09 03:29:23;;;;;;;2.83;2.63;;;;;;;3.51;100.00;98857.34;4972181;28;20242;-75
2022/01/09 03:31:49;;;;;;;3.80;3.50;;;;;;;1.52;100.00;98563.75;4951724;28;20197;-76
2022/01/09 03:34:14;;;;;;;3.30;3.10;;;;;;;2.39;100.00;98683.88;4971085;28;20194;-75
2022/01/09 03:36:40;;;;;;;3.30;3.10;;;;;;;3.80;100.00;98882.66;4970947;28;20647;-75
2022/01/09 03:39:05;;;;;;;3.50;3.30;;;;;;;3.04;100.00;98743.31;4972187;28;20818;-76
2022/01/09 03:41:31;;;;;;;4.20;3.47;;;;;;;3.77;100.00;98897.13;4970700;28;20220;-76
2022/01/09 03:43:56;;;;;;;4.57;3.70;;;;;;;2.88;100.00;98757.75;4971104;28;20882;-76
2022/01/09 03:46:22;;;;;;;4.27;3.97;;;;;;;3.64;100.00;98854.69;4972848;28;20214;-76
2022/01/09 03:48:47;;;;;;;4.53;3.57;;;;;;;4.08;100.00;98911.66;4974228;28;20290;-77
2022/01/09 03:51:13;;;;;;;3.40;3.20;;;;;;;3.44;100.00;98798.19;4970526;28;20265;-77
2022/01/09 03:53:39;;;;;;;3.13;2.93;;;;;;;3.46;100.00;98764.34;4969446;28;20182;-77
2022/01/09 03:56:05;;;;;;;4.50;3.93;;;;;;;3.88;100.00;98894.88;4974163;28;20240;-77
2022/01/09 03:58:30;;;;;;;4.27;3.87;;;;;;;3.53;100.00;98852.63;4974381;28;20530;-77
2022/01/09 04:00:55;;;;;;;4.30;3.90;;;;;;;3.27;100.00;98840.13;4971993;28;20612;-77
2022/01/09 04:03:21;;;;;;;4.23;3.83;;;;;;;3.79;100.00;98903.06;4972295;28;20186;-77
2022/01/09 04:05:46;;;;;;;4.30;4.00;;;;;;;3.77;100.00;98902.44;4973045;28;20217;-77
2022/01/09 04:08:12;;;;;;;5.20;4.60;;;;;;;3.55;100.00;98842.66;4973728;28;20796;-76
2022/01/09 04:10:40;;;;;;;4.83;4.43;;;;;;;2.67;100.00;98689.06;4973715;28;20217;-76
2022/01/09 04:13:07;;;;;;;4.70;4.30;;;;;;;3.50;100.00;98787.59;4953732;28;20758;-77
2022/01/09 04:15:32;;;;;;;5.10;4.63;;;;;;;3.93;100.00;98850.00;4972342;28;20468;-81
2022/01/09 04:17:58;;;;;;;5.20;4.80;;;;;;;4.07;100.00;98862.25;4973089;23;20892;-80
2022/01/09 04:20:30;;;;;;;5.50;4.60;;;;;;;3.80;100.00;98843.69;4959412;28;20194;-78
2022/01/09 04:22:56;;;;;;;6.43;5.83;;;;;;;4.04;100.00;98863.47;4958024;28;20201;-77
2022/01/09 04:25:22;;;;;;;6.43;4.77;;;;;;;4.34;100.00;98902.88;4954328;28;20440;-80
2022/01/09 04:27:48;;;;;;;5.83;5.30;;;;;;;4.51;100.00;98935.94;4951773;28;20264;-80
2022/01/09 04:30:15;;;;;;;5.83;5.20;;;;;;;4.44;100.00;98937.75;4974542;28;20473;-79
2022/01/09 04:32:40;;;;;;;7.63;4.97;;;;;;;4.16;100.00;98871.63;4962876;28;20440;-79
2022/01/09 04:35:07;;;;;;;6.17;4.53;;;;;;;4.20;100.00;98888.78;4972031;28;20922;-79
2022/01/09 04:37:34;;;;;;;8.10;4.93;;;;;;;4.37;100.00;98885.69;4975486;28;20474;-81
2022/01/09 04:39:59;;;;;;;10.57;4.37;;;;;;;4.27;100.00;98883.47;4963684;28;20468;-82
2022/01/09 04:42:33;;;;;;;10.03;3.83;;;;;;;4.66;100.00;98926.94;4959986;28;20480;-87
2022/01/09 04:44:58;;;;;;;8.17;3.33;;;;;;;4.07;100.00;98811.84;4965201;28;20197;-82
2022/01/09 04:47:24;;;;;;;13.10;3.43;;;;;;;4.36;100.00;98854.88;4979190;28;21119;-84
2022/01/09 04:49:50;;;;;;;9.07;3.00;;;;;;;4.74;100.00;98900.97;4959466;28;20840;-84
2022/01/09 04:52:19;;;;;;;9.77;3.03;;;;;;;5.05;100.00;98954.41;4972336;28;20194;-82
2022/01/09 04:54:46;;;;;;;12.77;3.27;;;;;;;4.36;100.00;98825.69;4963146;28;20440;-82
2022/01/09 04:57:11;;;;;;;8.83;2.60;;;;;;;5.00;100.00;98944.41;4973817;28;20480;-82
2022/01/09 04:59:37;;;;;;;13.13;2.60;;;;;;;4.30;100.00;98830.78;4956866;28;20483;-83
2022/01/09 05:02:03;;;;;;;10.13;2.70;;;;;;;4.36;100.00;98831.00;4973264;28;20568;-82
2022/01/09 05:04:28;;;;;;;11.77;1.87;;;;;;;4.72;100.00;98888.91;4975506;28;20195;-82
2022/01/09 05:06:54;;;;;;;7.97;2.57;;;;;;;4.40;100.00;98872.03;4973289;28;20241;-81
2022/01/09 05:09:19;;;;;;;8.70;2.10;;;;;;;4.66;100.00;98911.81;4961199;28;20190;-81
2022/01/09 05:11:44;;;;;;;10.30;2.10;;;;;;;3.91;100.00;98773.31;4971708;28;25060;-84
2022/01/09 05:14:10;;;;;;;8.20;2.07;;;;;;;4.66;100.00;98906.50;4973344;28;20194;-83
2022/01/09 05:16:35;;;;;;;7.33;1.97;;;;;;;4.49;100.00;98894.69;4956095;28;25117;-82
2022/01/09 05:19:07;;;;;;;10.53;1.73;;;;;;;4.86;100.00;98934.84;4969239;28;25092;-82
2022/01/09 05:21:33;;;;;;;5.83;1.90;;;;;;;4.60;100.00;98903.84;4955702;28;20273;-83
2022/01/09 05:23:58;;;;;;;9.83;2.47;;;;;;;5.35;100.00;99003.41;4973364;28;20929;-82
2022/01/09 05:26:24;;;;;;;13.50;2.80;;;;;;;4.72;100.00;98913.63;4975930;28;20441;-82
2022/01/09 05:28:49;;;;;;;10.20;3.10;;;;;;;4.89;100.00;98932.59;4973459;28;20228;-82
2022/01/09 05:31:15;;;;;;;15.53;2.67;;;;;;;4.82;100.00;98955.69;4972488;28;20598;-82
2022/01/09 05:33:40;;;;;;;9.27;2.37;;;;;;;5.21;100.00;99021.22;4973415;28;20256;-81
2022/01/09 05:36:06;;;;;;;12.07;2.70;;;;;;;4.46;100.00;98903.06;4970336;28;20189;-85
2022/01/09 05:38:32;;;;;;;12.43;3.53;;;;;;;5.40;100.00;99051.44;4970327;28;20673;-83
2022/01/09 05:40:57;;;;;;;17.27;2.70;;;;;;;4.54;100.00;98905.47;4970877;28;20195;-83
2022/01/09 05:43:23;;;;;;;17.33;2.93;;;;;;;4.94;100.00;98950.56;4975498;28;20445;-83
2022/01/09 05:45:48;;;;;;;14.80;3.80;;;;;;;4.56;100.00;98900.78;4974477;28;20352;-81
2022/01/09 05:48:13;;;;;;;12.70;2.87;;;;;;;5.48;100.00;99054.91;4974968;28;20285;-81
2022/01/09 05:50:39;;;;;;;11.13;3.07;;;;;;;5.21;100.00;99015.91;4973832;28;20282;-82
2022/01/09 05:53:05;;;;;;;19.50;3.70;;;;;;;4.45;100.00;98906.72;4962931;28;20204;-81
2022/01/09 05:55:30;;;;;;;18.13;3.97;;;;;;;4.76;100.00;98941.41;4974525;28;25094;-82
2022/01/09 05:57:57;;;;;;;21.77;4.20;;;;;;;5.14;100.00;99020.41;4961217;28;20564;-81
2022/01/09 06:00:22;;;;;;;24.30;5.40;;;;;;;4.78;100.00;98935.88;4970524;28;25156;-79
2022/01/09 06:02:48;;;;;;;22.10;4.70;;;;;;;5.41;100.00;99026.50;4967172;28;20447;-77
2022/01/09 06:05:13;;;;;;;24.00;5.10;;;;;;;4.62;100.00;98907.91;4970482;28;20186;-76
2022/01/09 06:07:40;;;;;;;37.03;5.80;;;;;;;4.98;100.00;98960.56;4972638;28;20678;-82
2022/01/09 06:10:07;;;;;;;23.17;5.53;;;;;;;5.26;100.00;99015.28;4955733;28;20190;-84
2022/01/09 06:12:32;;;;;;;31.87;5.50;;;;;;;5.21;100.00;99023.88;4955429;28;20495;-80
2022/01/09 06:14:58;;;;;;;26.80;5.30;;;;;;;5.55;100.00;99071.63;4963533;28;20813;-77
2022/01/09 06:17:24;;;;;;;24.30;4.60;;;;;;;4.98;100.00;98989.78;4971569;28;20647;-80
2022/01/09 06:19:49;;;;;;;31.13;4.60;;;;;;;5.50;100.00;99082.13;4964098;28;20495;-79
2022/01/09 06:22:18;;;;;;;23.17;5.17;;;;;;;5.37;100.00;99070.47;4962055;28;20272;-83
2022/01/09 06:24:47;;;;;;;23.00;5.00;;;;;;;5.35;100.00;99061.06;4963677;28;20186;-78
2022/01/09 06:27:14;;;;;;;31.20;5.30;;;;;;;5.54;100.00;99089.44;4958552;28;25170;-83
2022/01/09 06:29:39;;;;;;;26.23;4.80;;;;;;;5.76;100.00;99129.91;4960353;28;20949;-86
2022/01/09 06:32:06;;;;;;;30.37;4.83;;;;;;;5.37;100.00;99081.09;4960121;28;20450;-81
2022/01/09 06:34:31;;;;;;;21.73;4.43;;;;;;;5.61;100.00;99122.19;4961299;28;20194;-85
2022/01/09 06:36:57;;;;;;;16.93;4.40;;;;;;;4.98;100.00;99040.28;4952145;28;20505;-85
2022/01/09 06:39:22;;;;;;;16.87;3.60;;;;;;;5.38;100.00;99119.13;4958894;28;20225;-80
2022/01/09 06:41:47;;;;;;;20.30;4.20;;;;;;;5.33;100.00;99103.00;4965255;28;20675;-84
2022/01/09 06:44:13;;;;;;;17.17;3.80;;;;;;;4.86;100.00;99063.19;4967736;28;20202;-84
2022/01/09 06:46:38;;;;;;;12.10;3.50;;;;;;;5.58;100.00;99173.13;4975912;28;20572;-78
2022/01/09 06:49:04;;;;;;;24.10;4.43;;;;;;;5.21;100.00;99111.59;4977989;28;20212;-77
2022/01/09 06:51:29;;;;;;;16.83;4.40;;;;;;;5.32;100.00;99141.22;4979528;28;20192;-82
2022/01/09 06:53:54;;;;;;;17.87;2.73;;;;;;;5.31;100.00;99136.94;4976205;28;20193;-79
2022/01/09 06:56:20;;;;;;;14.73;3.23;;;;;;;5.62;100.00;99194.81;4964019;28;20201;-78
2022/01/09 06:58:45;;;;;;;19.33;3.70;;;;;;;5.10;100.00;99106.91;4971839;28;20711;-79
2022/01/09 07:01:10;;;;;;;22.37;4.53;;;;;;;4.77;100.00;99075.00;4956757;28;20664;-77
2022/01/09 07:03:36;;;;;;;21.33;3.80;;;;;;;5.56;100.00;99193.78;4958399;28;20198;-77
2022/01/09 07:06:01;;;;;;;28.77;4.60;;;;;;;4.56;100.00;99046.81;4981462;28;20200;-80
2022/01/09 07:08:28;;;;;;;23.87;4.30;;;;;;;5.55;100.00;99186.81;4971617;28;20202;-81
2022/01/09 07:10:54;;;;;;;20.07;4.80;;;;;;;4.06;100.00;98964.91;4975893;28;20185;-82
2022/01/09 07:13:20;;;;;;;25.37;4.80;;;;;;;4.52;100.00;99046.41;4964151;28;20445;-77
2022/01/09 07:15:45;;;;;;;28.07;4.83;;;;;;;5.24;100.00;99157.41;4956992;28;20196;-81
2022/01/09 07:18:10;;;;;;;20.30;4.80;;;;;;;5.13;100.00;99116.31;4976180;28;20257;-82
2022/01/09 07:20:36;;;;;;;22.53;3.83;;;;;;;5.63;100.00;99207.06;4976753;28;20344;-82
2022/01/09 07:23:01;;;;;;;23.80;4.73;;;;;;;5.08;100.00;99132.88;4972921;28;20648;-79
2022/01/09 07:25:27;;;;;;;31.53;4.77;;;;;;;5.58;100.00;99215.69;4974260;28;21151;-82
2022/01/09 07:27:52;;;;;;;15.37;3.20;;;;;;;4.99;100.00;99132.25;4975152;28;20223;-83
2022/01/09 07:30:17;;;;;;;18.13;3.80;;;;;;;5.79;100.00;99261.72;4972120;28;20193;-77
2022/01/09 07:32:43;;;;;;;22.03;4.60;;;;;;;5.87;100.00;99274.78;4976448;28;20218;-81
2022/01/09 07:35:09;;;;;;;13.80;3.00;;;;;;;4.78;100.00;99105.88;4976288;28;20217;-76
2022/01/09 07:37:34;;;;;;;18.70;3.97;;;;;;;5.85;100.00;99269.69;4970866;28;20328;-82
2022/01/09 07:39:59;;;;;;;16.13;4.60;;;;;;;5.48;100.00;99217.94;4975024;28;20221;-84
2022/01/09 07:42:25;;;;;;;17.67;3.40;;;;;;;5.79;100.00;99264.38;4951732;28;20190;-81
2022/01/09 07:44:50;;;;;;;25.10;5.50;;;;;;;5.03;100.00;99175.16;4976277;28;20194;-84
2022/01/09 07:47:16;;;;;;;21.10;5.30;;;;;;;5.83;100.00;99286.88;4960245;28;20289;-79
2022/01/09 07:49:41;;;;;;;21.10;4.20;;;;;;;5.06;100.00;99156.16;4949680;28;20182;-79
2022/01/09 07:52:07;;;;;;;19.30;4.37;;;;;;;5.95;100.00;99327.00;4965347;28;20190;-82
2022/01/09 07:54:32;;;;;;;23.20;3.87;;;;;;;5.38;100.00;99225.47;4974400;28;20205;-84
2022/01/09 07:56:58;;;;;;;20.10;4.00;;;;;;;4.45;100.00;99116.44;4958234;28;20210;-82
2022/01/09 07:59:23;;;;;;;26.40;4.50;;;;;;;4.45;100.00;99119.09;4973029;28;20664;-81
2022/01/09 08:01:52;;;;;;;17.80;3.67;;;;;;;4.61;100.00;99144.47;4966105;28;20205;-80
2022/01/09 08:04:18;;;;;;;20.33;4.00;;;;;;;5.28;100.00;99259.66;4969378;28;21052;-79
2022/01/09 08:06:43;;;;;;;24.30;4.07;;;;;;;5.91;100.00;99358.50;4957459;28;20444;-81
2022/01/09 08:09:09;;;;;;;15.73;3.83;;;;;;;5.90;100.00;99356.84;4952366;28;21334;-78
2022/01/09 08:11:34;;;;;;;21.30;4.23;;;;;;;5.10;100.00;99226.50;4969544;28;20190;-81
2022/01/09 08:14:00;;;;;;;29.07;4.53;;;;;;;5.56;100.00;99312.66;4972307;28;20189;-79
2022/01/09 08:16:25;;;;;;;20.27;4.00;;;;;;;5.47;100.00;99311.19;4970307;28;22757;-81
2022/01/09 08:18:52;;;;;;;21.40;4.67;;;;;;;5.64;100.00;99353.19;4969061;28;20220;-85
2022/01/09 08:21:19;;;;;;;16.77;3.63;;;;;;;5.64;100.00;99337.22;4939480;28;20429;-78
2022/01/09 08:23:47;;;;;;;14.60;3.10;;;;;;;5.39;100.00;99333.50;4955406;28;20440;-81
2022/01/09 08:26:13;;;;;;;10.73;2.30;;;;;;;5.04;100.00;99292.94;4962424;28;20438;-80
2022/01/09 08:28:41;;;;;;;17.07;4.00;;;;;;;5.68;100.00;99403.31;4957220;28;20555;-79
2022/01/09 08:31:08;;;;;;;13.83;3.60;;;;;;;5.07;100.00;99285.38;4959672;28;20466;-81
2022/01/09 08:33:33;;;;;;;22.37;4.53;;;;;;;5.72;100.00;99399.22;4954549;28;20867;-82
2022/01/09 08:35:59;;;;;;;14.07;3.37;;;;;;;5.32;100.00;99327.34;4959846;28;20504;-79
2022/01/09 08:38:25;;;;;;;12.50;3.47;;;;;;;5.21;100.00;99353.50;4973400;28;20213;-82
2022/01/09 08:40:50;;;;;;;23.37;5.23;;;;;;;5.42;100.00;99397.72;4971519;28;20682;-82
2022/01/09 08:43:16;;;;;;;20.70;4.27;;;;;;;4.94;100.00;99277.34;4960707;28;20441;-80
2022/01/09 08:45:42;;;;;;;14.43;3.73;;;;;;;4.58;100.00;99246.59;4970968;28;20193;-80
2022/01/09 08:48:07;;;;;;;14.67;4.97;;;;;;;5.53;100.00;99379.56;4965927;28;20232;-81
2022/01/09 08:50:33;;;;;;;16.23;4.17;;;;;;;4.13;100.00;99187.81;4966897;28;20197;-81
2022/01/09 08:52:58;;;;;;;18.23;3.50;;;;;;;5.70;100.00;99423.38;4950828;28;21693;-80
2022/01/09 08:55:24;;;;;;;15.27;3.73;;;;;;;4.85;100.00;99318.41;4970168;28;20197;-80
2022/01/09 08:57:50;;;;;;;16.43;3.17;;;;;;;4.33;100.00;99219.75;4968139;28;20773;-78
2022/01/09 09:00:18;;;;;;;24.33;4.40;;;;;;;5.78;100.00;99431.16;4969101;28;20182;-80
2022/01/09 09:02:43;;;;;;;27.67;4.80;;;;;;;5.11;100.00;99345.06;4969367;28;20445;-82
2022/01/09 09:05:09;;;;;;;25.70;3.93;;;;;;;5.74;100.00;99423.78;4966977;28;20449;-82
2022/01/09 09:07:35;;;;;;;22.33;5.20;;;;;;;4.88;100.00;99305.53;4967081;28;20220;-82
2022/01/09 09:10:03;;;;;;;17.10;3.50;;;;;;;5.87;100.00;99445.09;4959981;28;20284;-74
2022/01/09 09:12:29;;;;;;;22.10;3.73;;;;;;;5.13;100.00;99334.25;4973294;28;20195;-87
2022/01/09 09:14:55;;;;;;;16.13;4.27;;;;;;;5.06;100.00;99282.91;4954051;28;20444;-78
2022/01/09 09:17:21;;;;;;;15.53;3.17;;;;;;;5.73;100.00;99435.44;4952005;28;20925;-87
2022/01/09 09:19:46;;;;;;;16.40;3.37;;;;;;;5.85;100.00;99455.94;4962421;28;20189;-85
2022/01/09 09:22:11;;;;;;;15.37;3.30;;;;;;;5.44;100.00;99397.53;4962847;28;20721;-87
2022/01/09 09:24:37;;;;;;;21.00;3.97;;;;;;;5.44;100.00;99387.72;4960054;28;20182;-85
2022/01/09 09:27:03;;;;;;;21.50;4.20;;;;;;;5.03;100.00;99355.06;4967567;28;20206;-77
2022/01/09 09:29:29;;;;;;;18.33;3.97;;;;;;;5.78;100.00;99462.25;4977066;28;20693;-77
2022/01/09 09:31:54;;;;;;;23.80;4.97;;;;;;;5.18;100.00;99380.47;4953038;28;20881;-74
2022/01/09 09:34:20;;;;;;;26.07;3.57;;;;;;;4.96;100.00;99373.66;4952802;28;20200;-77
2022/01/09 09:36:45;;;;;;;15.00;3.30;;;;;;;5.14;100.00;99359.81;4965558;28;20213;-80
2022/01/09 09:39:12;;;;;;;16.90;3.80;;;;;;;5.17;100.00;99394.78;4967223;28;21077;-74
2022/01/09 09:41:39;;;;;;;19.50;3.27;;;;;;;5.17;100.00;99426.66;4961786;28;20190;-74
2022/01/09 09:44:07;;;;;;;15.97;3.23;;;;;;;5.30;100.00;99438.41;4952422;28;20564;-77
2022/01/09 09:46:33;;;;;;;15.87;3.20;;;;;;;5.43;100.00;99470.34;4970686;28;20444;-75
2022/01/09 09:48:58;;;;;;;16.40;3.13;;;;;;;5.57;100.00;99500.47;4968681;28;20465;-75
2022/01/09 09:51:24;;;;;;;17.77;3.03;;;;;;;5.55;100.00;99492.69;4955919;28;20185;-73
2022/01/09 09:53:50;;;;;;;10.53;2.70;;;;;;;5.80;100.00;99543.53;4963150;28;20692;-73
2022/01/09 09:56:16;;;;;;;12.40;2.63;;;;;;;5.01;100.00;99400.44;4966156;28;20205;-73
2022/01/09 09:58:41;;;;;;;12.20;2.97;;;;;;;5.75;100.00;99523.88;4962290;28;20523;-77
2022/01/09 10:01:08;;;;;;;15.87;3.13;;;;;;;5.79;100.00;99525.13;4969596;28;20233;-74
2022/01/09 10:03:34;;;;;;;9.10;2.30;;;;;;;5.21;100.00;99432.44;4970486;28;20314;-75
2022/01/09 10:06:00;;;;;;;8.23;2.03;;;;;;;5.91;100.00;99554.63;4963014;28;20529;-77
2022/01/09 10:08:39;;;;;;;6.37;1.80;;;;;;;5.50;100.00;99476.53;4965524;28;20198;-78
2022/01/09 10:11:16;;;;;;;7.63;1.83;;;;;;;5.82;100.00;99556.66;4970699;28;20934;-76
2022/01/09 10:13:42;;;;;;;9.90;2.00;;;;;;;5.30;100.00;99446.38;4955918;28;20878;-82
2022/01/09 10:16:09;;;;;;;10.33;1.90;;;;;;;5.85;100.00;99567.72;4949700;28;20445;-75
2022/01/09 10:18:49;;;;;;;7.00;1.83;;;;;;;6.00;100.00;99569.44;4961560;28;20213;-75
2022/01/09 10:21:23;;;;;;;7.37;1.70;;;;;;;5.57;100.00;99513.78;4964779;28;20594;-73
2022/01/09 10:24:08;;;;;;;9.77;1.97;;;;;;;5.96;100.00;99576.16;4956491;28;20552;-77
2022/01/09 10:26:36;;;;;;;12.53;2.80;;;;;;;5.89;100.00;99571.59;4954111;28;20516;-79
2022/01/09 10:29:04;;;;;;;14.43;2.43;;;;;;;5.98;100.00;99590.09;4949956;28;20472;-78
2022/01/09 10:31:30;;;;;;;10.83;2.60;;;;;;;5.85;100.00;99581.03;4944281;28;21052;-76
2022/01/09 10:34:06;;;;;;;18.93;3.17;;;;;;;5.64;100.00;99538.53;4970057;28;20527;-76
2022/01/09 10:36:51;;;;;;;13.80;3.47;;;;;;;5.72;100.00;99562.31;4969865;28;20483;-76
2022/01/09 10:39:21;;;;;;;14.03;3.40;;;;;;;5.76;100.00;99554.78;4966537;28;21193;-76
2022/01/09 10:41:58;;;;;;;9.23;2.33;;;;;;;6.05;100.00;99613.06;4970087;28;20436;-76
2022/01/09 10:44:31;;;;;;;20.43;3.43;;;;;;;5.94;100.00;99599.50;4954294;28;21262;-79
2022/01/09 10:46:58;;;;;;;16.00;3.57;;;;;;;5.64;100.00;99567.81;4952712;28;20433;-76
2022/01/09 10:49:24;;;;;;;11.53;3.10;;;;;;;5.95;100.00;99625.91;4972031;28;20946;-79
2022/01/09 10:51:50;;;;;;;10.27;2.43;;;;;;;5.63;100.00;99561.66;4956518;28;20455;-81
2022/01/09 10:54:29;;;;;;;9.70;2.70;;;;;;;6.01;100.00;99616.31;4952179;28;20445;-81
2022/01/09 10:57:19;;;;;;;19.70;3.60;;;;;;;6.09;100.00;99630.28;4962134;28;20461;-80
2022/01/09 10:59:45;;;;;;;13.77;3.20;;;;;;;6.14;100.00;99642.19;4971647;28;20564;-79
2022/01/09 11:02:12;;;;;;;15.47;2.70;;;;;;;6.02;100.00;99631.28;4978199;28;20442;-80
2022/01/09 11:04:37;;;;;;;13.40;3.20;;;;;;;5.21;100.00;99494.38;4966348;28;20189;-80
2022/01/09 11:07:03;;;;;;;15.03;3.07;;;;;;;6.06;100.00;99643.97;4954847;28;20461;-78
2022/01/09 11:09:30;;;;;;;9.87;2.80;;;;;;;5.51;100.00;99557.94;4968603;28;20185;-80
2022/01/09 11:11:56;;;;;;;14.43;3.20;;;;;;;6.09;100.00;99635.59;4971554;28;20182;-80
2022/01/09 11:14:24;;;;;;;12.60;2.90;;;;;;;6.21;100.00;99653.66;4971489;28;20448;-80
2022/01/09 11:16:54;;;;;;;11.23;2.63;;;;;;;6.10;100.00;99657.72;4967804;28;20464;-78
2022/01/09 11:19:24;;;;;;;11.40;2.90;;;;;;;5.65;100.00;99567.63;4971862;28;20432;-81
2022/01/09 11:22:01;;;;;;;15.40;3.03;;;;;;;5.90;100.00;99612.34;4972864;28;20495;-80
2022/01/09 11:25:09;;;;;;;18.23;3.40;;;;;;;6.23;100.00;99654.28;4971980;28;21127;-83
2022/01/09 11:27:53;;;;;;;14.10;3.53;;;;;;;6.29;100.00;99680.94;4911929;29;25129;-79